Time;durP1;ratioP1;P1;durP2;ratioP2;P2;SDS_P1;SDS_P2;PMS_P1;PMS_P2;Temp;Humidity;BMP_temperature;BMP_pressure;BME280_temperature;BME280_humidity;BME280_pressure;Samples;Min_cycle;Max_cycle;Signal;HPM_P1;HPM_P2
2022/05/20 00:00:49;;;;;;;13.73;12.32;;;13.20;90.20;;;;;;5038458;28;20025;-42
2022/05/20 00:03:15;;;;;;;13.85;11.82;;;13.10;90.20;;;;;;5046780;28;20078;-44
2022/05/20 00:05:44;;;;;;;20.17;13.75;;;13.00;90.30;;;;;;5049703;28;20446;-42
2022/05/20 00:08:13;;;;;;;15.88;12.60;;;13.00;90.40;;;;;;5044110;28;20036;-41
2022/05/20 00:10:38;;;;;;;14.00;12.13;;;13.00;90.40;;;;;;5037142;28;20030;-41
2022/05/20 00:13:06;;;;;;;14.85;11.75;;;12.90;90.40;;;;;;5044620;28;20040;-45
2022/05/20 00:15:32;;;;;;;12.60;9.57;;;12.90;90.40;;;;;;5040022;28;20033;-44
2022/05/20 00:18:01;;;;;;;17.52;10.00;;;12.90;90.30;;;;;;5029916;28;20063;-44
2022/05/20 00:20:28;;;;;;;17.67;9.52;;;12.90;90.40;;;;;;5030056;28;20025;-43
2022/05/20 00:22:54;;;;;;;13.88;9.00;;;12.80;90.10;;;;;;5035974;28;20029;-42
2022/05/20 00:28:06;;;;;;;12.43;9.07;;;12.70;90.20;;;;;;5045638;28;20401;-41
2022/05/20 00:30:32;;;;;;;14.55;8.80;;;12.70;90.40;;;;;;5047235;28;20040;-41
2022/05/20 00:32:58;;;;;;;12.18;7.97;;;12.70;90.20;;;;;;5030427;28;20362;-42
2022/05/20 00:35:24;;;;;;;11.52;7.20;;;12.60;90.10;;;;;;5042907;28;20037;-43
2022/05/20 00:37:50;;;;;;;10.38;6.93;;;12.50;90.10;;;;;;5029653;28;20385;-41
2022/05/20 00:40:18;;;;;;;11.82;7.70;;;12.50;90.20;;;;;;5029553;28;20500;-43
2022/05/20 00:42:44;;;;;;;12.65;7.70;;;12.50;90.20;;;;;;5028520;28;20455;-42
2022/05/20 00:45:11;;;;;;;12.63;7.95;;;12.40;90.10;;;;;;5045260;28;20045;-44
2022/05/20 00:47:37;;;;;;;11.38;6.75;;;12.50;90.30;;;;;;5045460;28;20457;-43
2022/05/20 00:50:08;;;;;;;12.13;6.13;;;12.50;90.10;;;;;;5035743;28;20087;-42
2022/05/20 00:52:37;;;;;;;9.77;5.95;;;12.50;89.90;;;;;;5035179;28;20458;-42
2022/05/20 00:55:10;;;;;;;10.73;5.85;;;12.50;89.70;;;;;;5048132;28;20033;-44
2022/05/20 00:57:45;;;;;;;11.93;5.40;;;12.50;89.80;;;;;;5031007;28;20037;-44
2022/05/20 01:00:15;;;;;;;10.88;5.65;;;12.50;89.70;;;;;;5029352;28;20018;-42
2022/05/20 01:02:41;;;;;;;9.32;5.78;;;12.40;89.50;;;;;;5027283;28;20039;-42
2022/05/20 01:05:15;;;;;;;12.20;5.22;;;12.40;89.50;;;;;;5048192;28;20461;-43
2022/05/20 01:07:42;;;;;;;14.88;5.43;;;12.40;89.50;;;;;;5043807;28;20533;-43
2022/05/20 01:10:08;;;;;;;8.50;4.85;;;12.40;89.60;;;;;;5046668;28;20108;-42
2022/05/20 01:12:34;;;;;;;12.15;4.93;;;12.40;89.50;;;;;;5047945;28;20083;-43
2022/05/20 01:15:00;;;;;;;10.07;5.63;;;12.30;89.40;;;;;;5045737;28;20029;-43
2022/05/20 01:17:27;;;;;;;9.65;4.88;;;12.30;89.50;;;;;;5047527;28;20029;-43
2022/05/20 01:19:57;;;;;;;7.22;4.13;;;12.30;89.50;;;;;;5046559;28;20064;-44
2022/05/20 01:23:08;;;;;;;9.68;5.07;;;12.20;89.50;;;;;;5045745;28;20030;-43
2022/05/20 01:25:34;;;;;;;11.02;5.30;;;12.20;89.40;;;;;;5047737;28;20037;-42
2022/05/20 01:28:02;;;;;;;8.52;4.75;;;12.20;89.50;;;;;;5039386;28;20032;-42
2022/05/20 01:30:30;;;;;;;13.50;5.50;;;12.20;89.30;;;;;;5031422;28;20297;-43
2022/05/20 01:32:56;;;;;;;11.82;5.45;;;12.10;89.20;;;;;;5032670;28;20028;-42
2022/05/20 01:35:27;;;;;;;11.18;4.68;;;12.00;89.10;;;;;;5048715;28;20086;-43
2022/05/20 01:37:53;;;;;;;8.75;4.63;;;12.00;89.20;;;;;;5041550;28;20765;-43
2022/05/20 01:40:18;;;;;;;11.63;6.10;;;11.90;89.10;;;;;;5046404;28;20028;-43
2022/05/20 01:42:49;;;;;;;8.75;5.13;;;11.90;89.00;;;;;;5040537;28;20040;-44
2022/05/20 01:45:32;;;;;;;9.30;4.85;;;11.90;89.10;;;;;;5038706;28;20030;-42
2022/05/20 01:48:09;;;;;;;8.32;5.00;;;11.80;89.10;;;;;;5027529;28;20034;-43
2022/05/20 01:50:42;;;;;;;8.95;4.72;;;11.70;89.00;;;;;;5034205;28;20359;-42
2022/05/20 01:53:16;;;;;;;7.88;4.55;;;11.70;89.10;;;;;;5047508;28;20044;-45
2022/05/20 01:56:00;;;;;;;9.15;5.20;;;11.70;89.10;;;;;;5045378;28;20120;-43
2022/05/20 01:58:50;;;;;;;9.10;4.47;;;11.70;89.20;;;;;;5040161;28;20037;-44
2022/05/20 02:01:30;;;;;;;9.25;5.03;;;11.60;89.10;;;;;;5039409;28;20116;-43
2022/05/20 02:04:12;;;;;;;7.90;4.78;;;11.60;89.20;;;;;;5048078;28;20155;-46
2022/05/20 02:06:42;;;;;;;13.20;5.40;;;11.60;89.20;;;;;;5045202;28;20038;-45
2022/05/20 02:09:29;;;;;;;10.90;4.97;;;11.60;89.30;;;;;;5048014;28;20040;-42
2022/05/20 02:11:58;;;;;;;9.77;5.50;;;11.60;89.20;;;;;;5050119;28;20053;-43
2022/05/20 02:14:41;;;;;;;11.55;5.25;;;11.60;89.40;;;;;;5039225;28;20079;-44
2022/05/20 02:17:16;;;;;;;11.70;5.65;;;11.60;89.30;;;;;;5036679;28;20055;-43
2022/05/20 02:19:57;;;;;;;9.73;5.82;;;11.60;89.50;;;;;;5048263;28;20044;-43
2022/05/20 02:22:29;;;;;;;9.50;6.22;;;11.60;89.40;;;;;;5048090;28;20044;-44
2022/05/20 02:24:56;;;;;;;10.88;6.07;;;11.60;89.50;;;;;;5051928;28;20017;-43
2022/05/20 02:27:33;;;;;;;10.30;5.95;;;11.60;89.50;;;;;;5043997;28;20021;-44
2022/05/20 02:30:14;;;;;;;13.23;6.05;;;11.60;89.40;;;;;;5025691;28;20026;-43
2022/05/20 02:32:48;;;;;;;14.48;5.93;;;11.60;89.10;;;;;;5041217;28;20505;-44
2022/05/20 02:35:14;;;;;;;9.32;6.43;;;11.60;89.30;;;;;;5048559;28;20116;-44
2022/05/20 02:37:40;;;;;;;16.60;7.57;;;11.60;89.20;;;;;;5048372;28;20159;-44
2022/05/20 02:40:09;;;;;;;12.43;6.05;;;11.50;89.30;;;;;;5046480;28;20040;-43
2022/05/20 02:42:34;;;;;;;13.07;6.57;;;11.50;89.20;;;;;;5035063;28;20481;-43
2022/05/20 02:45:03;;;;;;;11.75;7.28;;;11.50;89.20;;;;;;5031588;28;20029;-44
2022/05/20 02:47:32;;;;;;;17.33;7.07;;;11.40;89.30;;;;;;5044810;28;20032;-43
2022/05/20 02:50:01;;;;;;;9.75;7.00;;;11.40;89.30;;;;;;5032001;28;20025;-45
2022/05/20 02:52:27;;;;;;;16.92;8.13;;;11.40;89.30;;;;;;5030953;28;20144;-44
2022/05/20 02:54:52;;;;;;;14.98;8.23;;;11.30;89.30;;;;;;5040748;28;20390;-45
2022/05/20 02:57:18;;;;;;;16.48;9.30;;;11.30;89.40;;;;;;5018937;28;20028;-45
2022/05/20 03:05:15;;;;;;;13.93;9.27;;;11.40;89.80;;;;;;5026491;28;20485;-45
2022/05/20 03:07:40;;;;;;;16.17;10.23;;;11.40;89.80;;;;;;5047078;28;20048;-44
2022/05/20 03:10:08;;;;;;;12.35;8.60;;;11.30;89.80;;;;;;5045332;28;20060;-44
2022/05/20 03:12:35;;;;;;;12.38;9.63;;;11.30;89.70;;;;;;5050629;28;20037;-43
2022/05/20 03:15:07;;;;;;;12.50;10.38;;;11.30;89.70;;;;;;5034204;28;20071;-44
2022/05/20 03:17:33;;;;;;;18.35;11.95;;;11.30;89.70;;;;;;5047211;28;20033;-44
2022/05/20 03:20:01;;;;;;;14.63;9.93;;;11.20;89.60;;;;;;5042666;28;20039;-43
2022/05/20 03:22:27;;;;;;;15.00;9.60;;;11.20;89.70;;;;;;5040529;28;20039;-44
2022/05/20 03:24:52;;;;;;;12.38;9.07;;;11.20;89.80;;;;;;5042960;28;20029;-44
2022/05/20 03:27:18;;;;;;;20.10;10.90;;;11.20;89.80;;;;;;5044907;28;20028;-45
2022/05/20 03:29:45;;;;;;;10.80;9.32;;;11.20;89.80;;;;;;5044699;28;20048;-44
2022/05/20 03:32:11;;;;;;;11.70;9.63;;;11.20;89.70;;;;;;5030525;28;20040;-44
2022/05/20 03:34:38;;;;;;;17.33;10.43;;;11.20;89.70;;;;;;5038168;28;20091;-45
2022/05/20 03:37:04;;;;;;;14.82;11.63;;;11.20;89.70;;;;;;5046029;28;20080;-44
2022/05/20 03:39:30;;;;;;;19.55;10.18;;;11.20;89.70;;;;;;5040362;28;20386;-46
2022/05/20 03:41:57;;;;;;;13.38;10.25;;;11.20;89.70;;;;;;5040780;28;20029;-45
2022/05/20 03:44:24;;;;;;;12.07;9.95;;;11.20;89.80;;;;;;5044557;28;20497;-45
2022/05/20 03:46:52;;;;;;;14.23;10.05;;;11.20;89.80;;;;;;5045707;28;20540;-44
2022/05/20 03:49:18;;;;;;;13.18;10.13;;;11.20;89.90;;;;;;5044375;28;20049;-45
2022/05/20 03:51:46;;;;;;;18.40;10.93;;;11.30;90.00;;;;;;5050015;28;20060;-44
2022/05/20 03:54:13;;;;;;;14.50;10.48;;;11.40;90.10;;;;;;5035676;28;20113;-44
2022/05/20 03:56:40;;;;;;;15.60;10.20;;;11.50;90.20;;;;;;5030069;28;20033;-46
2022/05/20 03:59:08;;;;;;;14.20;10.10;;;11.60;90.10;;;;;;5038381;28;20021;-45
2022/05/20 04:04:23;;;;;;;14.07;9.20;;;11.70;89.80;;;;;;5036857;28;20099;-45
2022/05/20 04:06:48;;;;;;;14.77;9.52;;;11.70;89.80;;;;;;5041510;28;20053;-44
2022/05/20 04:09:14;;;;;;;10.52;8.38;;;11.80;89.50;;;;;;5036946;28;20068;-45
2022/05/20 04:11:42;;;;;;;10.43;8.95;;;11.80;89.60;;;;;;5039607;28;20041;-45
2022/05/20 04:14:09;;;;;;;10.68;9.57;;;11.80;89.40;;;;;;5043358;28;20055;-45
2022/05/20 04:16:34;;;;;;;11.23;9.57;;;11.90;89.60;;;;;;5049731;28;20025;-44
2022/05/20 04:19:00;;;;;;;11.48;8.95;;;11.90;89.50;;;;;;5039169;28;20025;-43
2022/05/20 04:21:25;;;;;;;11.02;8.98;;;12.00;89.50;;;;;;5028929;28;20072;-45
2022/05/20 04:23:51;;;;;;;11.13;8.27;;;12.00;89.40;;;;;;5028825;28;20473;-44
2022/05/20 04:26:17;;;;;;;12.02;8.45;;;12.10;89.30;;;;;;5037699;28;20029;-45
2022/05/20 04:28:43;;;;;;;10.30;8.20;;;12.10;89.10;;;;;;5037955;28;20026;-45
2022/05/20 04:31:10;;;;;;;10.60;8.32;;;12.10;89.10;;;;;;5049190;28;20049;-47
2022/05/20 04:33:36;;;;;;;14.07;9.77;;;12.10;89.10;;;;;;5038822;28;20152;-44
2022/05/20 04:36:02;;;;;;;10.75;9.27;;;12.10;89.30;;;;;;5044049;28;20036;-44
2022/05/20 04:38:28;;;;;;;14.60;9.85;;;12.10;89.20;;;;;;5034329;28;20408;-45
2022/05/20 04:49:09;;;;;;;12.70;9.00;;;12.30;89.10;;;;;;5043837;28;20032;-45
2022/05/20 04:51:39;;;;;;;12.25;8.32;;;12.40;89.10;;;;;;5049001;28;20123;-44
2022/05/20 04:56:49;;;;;;;11.65;9.13;;;12.40;89.00;;;;;;5029925;28;20103;-44
2022/05/20 04:59:16;;;;;;;14.07;9.45;;;12.60;88.90;;;;;;5029180;28;20029;-42
2022/05/20 05:01:41;;;;;;;11.60;9.30;;;12.60;88.70;;;;;;5028953;28;20480;-44
2022/05/20 05:04:07;;;;;;;13.15;9.68;;;12.60;88.70;;;;;;5029071;28;20080;-43
2022/05/20 05:06:34;;;;;;;12.15;8.63;;;12.80;88.70;;;;;;5048044;28;20087;-43
2022/05/20 05:09:02;;;;;;;13.07;9.43;;;12.90;88.80;;;;;;5043414;28;20059;-43
2022/05/20 05:11:28;;;;;;;14.05;8.63;;;13.00;88.80;;;;;;5044443;28;20091;-44
2022/05/20 05:13:53;;;;;;;12.75;9.68;;;12.90;88.50;;;;;;5038880;28;20025;-45
2022/05/20 05:16:21;;;;;;;15.13;9.68;;;12.90;88.30;;;;;;5046284;28;20047;-44
2022/05/20 05:18:49;;;;;;;11.57;8.20;;;12.90;88.60;;;;;;5042822;28;20033;-44
2022/05/20 05:21:15;;;;;;;15.75;8.52;;;12.90;88.80;;;;;;5048790;28;20044;-43
2022/05/20 05:23:41;;;;;;;10.52;8.40;;;13.00;88.70;;;;;;5042102;28;20108;-43
2022/05/20 05:26:07;;;;;;;16.40;9.10;;;13.10;88.80;;;;;;5045030;28;20857;-43
2022/05/20 05:28:33;;;;;;;14.32;9.35;;;13.20;88.70;;;;;;5041620;28;20028;-44
2022/05/20 05:30:58;;;;;;;14.07;9.25;;;13.20;88.50;;;;;;5028284;28;20810;-44
2022/05/20 05:33:24;;;;;;;14.50;8.80;;;13.20;88.70;;;;;;5044279;28;20079;-44
2022/05/20 05:35:50;;;;;;;11.45;7.53;;;13.40;88.70;;;;;;5038086;28;20104;-42
2022/05/20 05:38:16;;;;;;;11.55;8.52;;;13.60;88.70;;;;;;5030925;28;20376;-43
2022/05/20 05:40:42;;;;;;;12.35;8.10;;;13.70;88.10;;;;;;5039799;28;20453;-43
2022/05/20 05:43:08;;;;;;;12.63;7.15;;;13.90;87.70;;;;;;5033910;28;20049;-42
2022/05/20 05:45:38;;;;;;;9.82;6.88;;;14.20;87.40;;;;;;5049729;28;20029;-42
2022/05/20 05:48:08;;;;;;;11.90;6.85;;;14.30;86.20;;;;;;5050582;28;20024;-41
2022/05/20 05:50:37;;;;;;;11.02;5.85;;;14.40;86.10;;;;;;5012865;28;20125;-45
2022/05/20 05:53:16;;;;;;;7.93;5.57;;;14.30;86.20;;;;;;5011275;28;20029;-41
2022/05/20 05:55:44;;;;;;;28.20;22.30;;;14.30;86.20;;;;;;5047782;28;20086;-41
2022/05/20 05:58:13;;;;;;;19.35;10.07;;;14.40;85.90;;;;;;5031439;28;20060;-41
2022/05/20 06:00:42;;;;;;;9.68;5.85;;;14.30;86.10;;;;;;5041415;28;20040;-41
2022/05/20 06:03:08;;;;;;;15.18;8.05;;;14.30;86.20;;;;;;5030879;28;20049;-41
2022/05/20 06:05:35;;;;;;;11.48;6.32;;;14.30;86.10;;;;;;5036810;28;20021;-42
2022/05/20 06:08:00;;;;;;;12.40;6.13;;;14.10;86.10;;;;;;5046885;28;20021;-41
2022/05/20 06:10:31;;;;;;;12.30;7.20;;;14.10;86.30;;;;;;5050822;28;20362;-41
2022/05/20 06:12:57;;;;;;;10.82;5.25;;;14.20;86.20;;;;;;5050061;28;20036;-41
2022/05/20 06:15:26;;;;;;;14.10;5.78;;;14.20;86.50;;;;;;5044069;28;20036;-44
2022/05/20 06:17:52;;;;;;;11.82;5.95;;;14.20;85.70;;;;;;5049340;28;20037;-41
2022/05/20 06:20:20;;;;;;;15.63;8.13;;;14.10;86.60;;;;;;5048825;28;20045;-42
2022/05/20 06:22:49;;;;;;;13.32;7.05;;;14.30;86.70;;;;;;5049302;28;20575;-41
2022/05/20 06:25:15;;;;;;;9.30;5.32;;;14.40;86.30;;;;;;5050799;28;20115;-41
2022/05/20 06:27:41;;;;;;;16.70;10.63;;;14.40;85.90;;;;;;5046721;28;20022;-42
2022/05/20 06:30:09;;;;;;;14.48;6.95;;;14.40;86.50;;;;;;5016678;28;20030;-42
2022/05/20 06:32:35;;;;;;;20.02;12.07;;;14.40;85.30;;;;;;5044963;28;20025;-41
2022/05/20 06:40:44;;;;;;;15.10;4.85;;;14.50;84.20;;;;;;5026232;28;20082;-41
2022/05/20 06:43:21;;;;;;;14.32;4.43;;;14.50;84.60;;;;;;5038248;28;20026;-40
2022/05/20 06:45:52;;;;;;;10.70;4.13;;;14.60;84.20;;;;;;5033757;28;20106;-41
2022/05/20 06:48:18;;;;;;;6.95;3.67;;;14.70;84.00;;;;;;5049481;28;20054;-42
2022/05/20 06:50:44;;;;;;;8.23;3.38;;;14.80;84.10;;;;;;5051427;28;20045;-42
2022/05/20 06:53:13;;;;;;;9.25;4.43;;;14.70;82.80;;;;;;5049401;28;20029;-41
2022/05/20 06:55:38;;;;;;;8.80;3.47;;;14.80;83.30;;;;;;5050380;28;20039;-41
2022/05/20 06:58:07;;;;;;;9.27;3.33;;;14.80;82.70;;;;;;5031112;28;20459;-41
2022/05/20 07:00:33;;;;;;;9.50;4.97;;;14.90;83.10;;;;;;5033851;28;20490;-41
2022/05/20 07:02:59;;;;;;;10.27;4.68;;;15.00;83.50;;;;;;5030934;28;20034;-42
2022/05/20 07:05:27;;;;;;;7.82;3.58;;;15.30;82.80;;;;;;5029321;28;20029;-41
2022/05/20 07:07:53;;;;;;;10.93;3.67;;;15.50;81.80;;;;;;5031078;28;20366;-41
2022/05/20 07:10:20;;;;;;;8.77;2.30;;;15.60;81.10;;;;;;5048488;28;20104;-41
2022/05/20 07:12:45;;;;;;;6.85;2.03;;;15.40;78.70;;;;;;5040518;28;20028;-42
2022/05/20 07:15:11;;;;;;;9.13;2.42;;;15.30;78.60;;;;;;5039401;28;20071;-41
2022/05/20 07:17:38;;;;;;;8.07;3.30;;;15.30;79.00;;;;;;5029974;28;20037;-42
2022/05/20 07:20:05;;;;;;;7.65;3.42;;;15.10;79.90;;;;;;5037370;28;20446;-42
2022/05/20 07:22:31;;;;;;;8.18;3.40;;;15.00;81.00;;;;;;5048215;28;20045;-41
2022/05/20 07:24:59;;;;;;;11.75;3.33;;;15.00;81.20;;;;;;5049761;28;20033;-41
2022/05/20 07:27:31;;;;;;;8.45;2.88;;;15.10;81.40;;;;;;5047514;28;20078;-42
2022/05/20 07:29:57;;;;;;;8.90;2.92;;;15.10;80.10;;;;;;5043923;28;20031;-43
2022/05/20 07:32:23;;;;;;;8.20;2.70;;;15.40;79.80;;;;;;5049478;28;20029;-44
2022/05/20 07:34:48;;;;;;;8.23;2.45;;;16.00;78.60;;;;;;5064203;28;20033;-44
2022/05/20 07:37:14;;;;;;;6.90;2.72;;;16.80;77.20;;;;;;5048239;28;20033;-44
2022/05/20 07:39:40;;;;;;;4.47;2.42;;;17.50;71.80;;;;;;5034717;28;20120;-44
2022/05/20 07:42:06;;;;;;;4.63;1.48;;;17.90;69.30;;;;;;5046348;28;20107;-43
2022/05/20 07:44:33;;;;;;;9.15;2.63;;;18.40;70.00;;;;;;5044928;28;20032;-44
2022/05/20 07:46:59;;;;;;;5.43;2.03;;;19.00;68.20;;;;;;5046959;28;20087;-46
2022/05/20 07:49:24;;;;;;;4.75;1.50;;;19.10;63.80;;;;;;5044971;28;20037;-45
2022/05/20 07:51:55;;;;;;;5.43;1.75;;;18.90;62.70;;;;;;5037381;28;20049;-45
2022/05/20 07:54:25;;;;;;;7.25;2.25;;;18.70;64.80;;;;;;5047739;28;20078;-49
2022/05/20 07:56:59;;;;;;;8.70;2.40;;;18.60;65.40;;;;;;5034845;28;20029;-44
2022/05/20 07:59:39;;;;;;;5.50;2.17;;;18.60;64.90;;;;;;5036832;28;20025;-44
2022/05/20 08:02:05;;;;;;;8.15;2.45;;;18.70;67.60;;;;;;5032225;28;20477;-45
2022/05/20 08:04:55;;;;;;;6.00;2.58;;;19.30;67.60;;;;;;5039997;28;20025;-45
2022/05/20 08:07:28;;;;;;;8.18;2.13;;;19.80;64.00;;;;;;5047589;28;20033;-49
2022/05/20 08:09:54;;;;;;;4.95;2.25;;;19.60;62.80;;;;;;5032791;28;20052;-50
2022/05/20 08:12:21;;;;;;;8.98;2.78;;;19.40;63.50;;;;;;5035000;28;20362;-45
2022/05/20 08:14:48;;;;;;;9.05;2.75;;;19.40;63.50;;;;;;5041350;28;20040;-45
2022/05/20 08:17:14;;;;;;;6.38;2.60;;;19.60;64.40;;;;;;5047679;28;20039;-47
2022/05/20 08:19:39;;;;;;;6.25;2.13;;;19.60;62.60;;;;;;5039215;28;20029;-45
2022/05/20 08:22:05;;;;;;;4.63;2.10;;;19.70;63.10;;;;;;5033865;28;20033;-45
2022/05/20 08:24:31;;;;;;;6.88;2.53;;;20.10;61.50;;;;;;5031505;28;20021;-45
2022/05/20 08:26:59;;;;;;;6.97;2.45;;;21.00;61.10;;;;;;5029985;28;20090;-45
2022/05/20 08:29:25;;;;;;;6.40;2.65;;;21.40;56.00;;;;;;5029337;28;20485;-46
2022/05/20 08:31:53;;;;;;;8.52;1.65;;;21.80;57.50;;;;;;5029719;28;20052;-46
2022/05/20 08:34:19;;;;;;;4.72;1.80;;;22.10;56.10;;;;;;5045743;28;20074;-46
2022/05/20 08:36:44;;;;;;;5.55;1.70;;;22.00;50.90;;;;;;5048008;28;20108;-48
2022/05/20 08:39:14;;;;;;;6.10;1.85;;;22.30;53.40;;;;;;5035915;28;20041;-47
2022/05/20 08:41:46;;;;;;;4.35;1.80;;;22.40;51.80;;;;;;5046486;28;20445;-46
2022/05/20 08:44:17;;;;;;;5.50;2.33;;;22.10;51.50;;;;;;5040037;28;20036;-48
2022/05/20 08:46:44;;;;;;;5.80;2.67;;;22.30;54.10;;;;;;5030035;28;20462;-46
2022/05/20 08:49:13;;;;;;;3.83;1.58;;;22.20;52.90;;;;;;5031079;28;20044;-46
2022/05/20 08:51:41;;;;;;;7.15;2.75;;;22.80;53.90;;;;;;5046747;28;20416;-47
2022/05/20 08:54:08;;;;;;;6.28;2.88;;;22.90;54.30;;;;;;5037207;28;20461;-47
2022/05/20 08:56:37;;;;;;;7.28;2.10;;;22.30;53.70;;;;;;5032164;28;20033;-46
2022/05/20 08:59:12;;;;;;;4.57;2.00;;;22.10;56.10;;;;;;5041812;28;20051;-46
2022/05/20 09:01:46;;;;;;;3.97;1.70;;;22.10;54.00;;;;;;5030979;28;20044;-46
2022/05/20 09:04:14;;;;;;;5.07;2.22;;;22.30;57.40;;;;;;5031774;28;20145;-46
2022/05/20 09:07:02;;;;;;;11.10;2.42;;;22.70;56.00;;;;;;5032423;28;20047;-46
2022/05/20 09:09:55;;;;;;;6.25;2.60;;;22.70;53.30;;;;;;5033565;28;20108;-47
2022/05/20 09:12:26;;;;;;;5.03;2.55;;;22.20;55.20;;;;;;5011254;28;20475;-46
2022/05/20 09:17:46;;;;;;;6.20;1.80;;;22.30;53.50;;;;;;5030817;28;20638;-47
2022/05/20 09:20:18;;;;;;;5.60;2.25;;;22.10;56.00;;;;;;5044820;28;20057;-48
2022/05/20 09:23:03;;;;;;;5.82;1.80;;;21.60;53.40;;;;;;5052894;28;20349;-46
2022/05/20 09:25:32;;;;;;;5.15;2.47;;;21.20;55.70;;;;;;5040809;28;20044;-46
2022/05/20 09:28:19;;;;;;;4.63;1.92;;;20.90;58.00;;;;;;5040580;28;20446;-46
2022/05/20 09:30:52;;;;;;;4.57;2.67;;;21.00;57.80;;;;;;5027156;28;20075;-48
2022/05/20 09:33:26;;;;;;;6.00;3.00;;;21.10;58.80;;;;;;5049463;28;20017;-47
2022/05/20 09:36:00;;;;;;;6.00;2.58;;;21.60;59.10;;;;;;5040763;28;20459;-46
2022/05/20 09:38:34;;;;;;;6.90;2.15;;;22.00;56.00;;;;;;5044496;28;20033;-47
2022/05/20 09:41:12;;;;;;;5.28;2.03;;;22.40;54.70;;;;;;5036803;28;20036;-46
2022/05/20 09:43:41;;;;;;;6.05;2.45;;;22.40;56.00;;;;;;5046504;28;20021;-49
2022/05/20 09:46:42;;;;;;;4.22;1.52;;;22.50;53.50;;;;;;5035211;28;20121;-46
2022/05/20 09:49:54;;;;;;;5.72;2.58;;;23.20;54.00;;;;;;5035337;28;20504;-48
2022/05/20 09:52:27;;;;;;;6.78;2.95;;;22.80;53.90;;;;;;5019982;28;20529;-46
2022/05/20 09:55:00;;;;;;;6.15;2.10;;;22.30;55.90;;;;;;5009556;28;20092;-46
2022/05/20 09:57:38;;;;;;;6.35;3.08;;;21.70;56.30;;;;;;5010442;28;20319;-47
2022/05/20 10:00:19;;;;;;;5.22;2.28;;;21.40;55.50;;;;;;5009090;28;20034;-47
2022/05/20 10:03:03;;;;;;;5.43;1.88;;;21.30;57.10;;;;;;5005985;28;20034;-48
2022/05/20 10:05:41;;;;;;;5.32;2.05;;;21.70;57.80;;;;;;5023269;28;20439;-46
2022/05/20 10:08:30;;;;;;;4.15;1.75;;;22.00;55.00;;;;;;5003513;28;20047;-48
2022/05/20 10:11:05;;;;;;;;;;;22.00;54.50;;;;;;5000127;28;20018;-46
2022/05/20 10:13:44;;;;;;;6.30;2.38;;;22.20;53.00;;;;;;5001684;28;20396;-48
2022/05/20 10:16:17;;;;;;;6.10;1.85;;;22.30;55.40;;;;;;5003467;28;20104;-48
2022/05/20 10:18:55;;;;;;;5.40;2.60;;;22.40;55.90;;;;;;5009274;28;20046;-47
2022/05/20 10:21:51;;;;;;;5.28;2.28;;;22.80;55.70;;;;;;5009964;28;20026;-49
2022/05/20 10:24:44;;;;;;;4.50;1.70;;;23.00;55.50;;;;;;5004994;28;20038;-50
2022/05/20 10:27:37;;;;;;;8.27;2.75;;;22.60;53.60;;;;;;5029904;28;20041;-46
2022/05/20 10:33:09;;;;;;;7.20;2.35;;;22.30;53.80;;;;;;5039207;28;20101;-48
2022/05/20 10:35:58;;;;;;;3.13;1.52;;;22.10;52.50;;;;;;5036582;28;20808;-46
2022/05/20 10:38:37;;;;;;;5.00;1.67;;;22.60;50.70;;;;;;5038150;28;20025;-46
2022/05/20 10:41:09;;;;;;;7.32;1.90;;;22.90;51.80;;;;;;5037977;28;20060;-49
2022/05/20 10:49:52;;;;;;;4.40;2.20;;;22.90;50.90;;;;;;5036169;28;20956;-46
2022/05/20 10:53:16;;;;;;;5.57;2.50;;;22.80;52.70;;;;;;5029708;28;20382;-46
2022/05/20 10:55:50;;;;;;;4.13;1.40;;;23.20;50.80;;;;;;4972880;28;20049;-46
2022/05/20 10:58:38;;;;;;;6.28;3.20;;;23.40;51.50;;;;;;5028033;28;20133;-48
2022/05/20 11:01:27;;;;;;;5.85;1.95;;;23.10;50.40;;;;;;5009524;28;20054;-47
2022/05/20 11:04:23;;;;;;;6.13;2.60;;;23.00;51.70;;;;;;5016477;28;20025;-46
2022/05/20 11:07:07;;;;;;;5.57;2.28;;;22.80;52.50;;;;;;5023719;28;20553;-48
2022/05/20 11:09:39;;;;;;;4.72;2.35;;;22.90;51.30;;;;;;5037491;28;20378;-46
2022/05/20 11:12:06;;;;;;;5.38;1.98;;;22.20;52.00;;;;;;5037435;28;20034;-47
2022/05/20 11:14:31;;;;;;;5.30;2.15;;;22.40;50.90;;;;;;5033977;28;20047;-47
2022/05/20 11:17:21;;;;;;;5.38;2.38;;;22.50;51.40;;;;;;5028600;28;20128;-48
2022/05/20 11:20:04;;;;;;;4.13;2.03;;;22.50;51.30;;;;;;5038809;28;20544;-47
2022/05/20 11:22:48;;;;;;;5.65;2.63;;;22.60;52.80;;;;;;5028703;28;20061;-46
2022/05/20 11:25:23;;;;;;;4.68;1.98;;;22.00;53.20;;;;;;5029057;28;20032;-46
2022/05/20 11:28:16;;;;;;;9.10;3.72;;;22.30;55.20;;;;;;5041590;28;20449;-46
2022/05/20 11:31:15;;;;;;;5.43;2.85;;;22.40;53.50;;;;;;5044813;28;20029;-48
2022/05/20 11:34:01;;;;;;;7.57;3.58;;;22.30;53.40;;;;;;5043606;28;20063;-46
2022/05/20 11:36:46;;;;;;;5.47;2.88;;;22.20;53.10;;;;;;5036703;28;20120;-50
2022/05/20 11:39:33;;;;;;;4.07;2.17;;;22.10;51.00;;;;;;5039561;28;20603;-46
2022/05/20 11:42:08;;;;;;;11.52;3.10;;;21.90;55.20;;;;;;5045099;28;20120;-47
2022/05/20 11:44:52;;;;;;;8.43;2.33;;;21.90;55.60;;;;;;5042404;28;20379;-47
2022/05/20 11:47:58;;;;;;;5.10;2.55;;;22.20;57.40;;;;;;5048154;28;20032;-46
2022/05/20 11:50:43;;;;;;;7.00;2.83;;;22.20;57.40;;;;;;5015090;28;20396;-48
2022/05/20 11:53:34;;;;;;;7.65;3.42;;;22.10;57.20;;;;;;5046305;28;20086;-48
2022/05/20 11:56:16;;;;;;;7.70;2.85;;;21.90;55.00;;;;;;5043482;28;20021;-46
2022/05/20 11:58:59;;;;;;;8.43;3.60;;;21.70;60.20;;;;;;5033238;28;20028;-46
2022/05/20 12:01:26;;;;;;;7.82;3.50;;;21.70;60.30;;;;;;5037963;28;20087;-46
2022/05/20 12:04:07;;;;;;;7.25;3.22;;;21.40;60.00;;;;;;5030749;28;20062;-47
2022/05/20 12:06:38;;;;;;;6.93;3.08;;;21.20;59.90;;;;;;5041194;28;20460;-46
2022/05/20 12:09:34;;;;;;;9.73;3.55;;;21.00;59.00;;;;;;5046923;28;20025;-46
2022/05/20 12:12:15;;;;;;;6.05;3.28;;;21.00;61.50;;;;;;5049019;28;20033;-46
2022/05/20 12:14:59;;;;;;;9.30;3.20;;;21.00;63.30;;;;;;5043699;28;20051;-46
2022/05/20 12:17:41;;;;;;;6.18;2.97;;;20.90;60.30;;;;;;5009699;28;20030;-47
2022/05/20 12:25:57;;;;;;;6.78;2.80;;;21.00;63.90;;;;;;5030022;28;20029;-46
2022/05/20 12:28:22;;;;;;;5.60;2.60;;;21.00;61.10;;;;;;5015053;28;20056;-46
2022/05/20 12:31:07;;;;;;;6.70;3.67;;;20.70;62.40;;;;;;5049641;28;20102;-50
2022/05/20 12:33:50;;;;;;;5.45;2.17;;;20.90;60.50;;;;;;5033019;28;20050;-46
2022/05/20 12:36:28;;;;;;;11.50;3.50;;;21.10;62.90;;;;;;5042835;28;20403;-46
2022/05/20 12:39:06;;;;;;;7.75;3.33;;;21.10;63.30;;;;;;5043869;28;20179;-47
2022/05/20 12:42:02;;;;;;;6.22;3.35;;;20.90;64.00;;;;;;5040271;28;20033;-46
2022/05/20 12:44:35;;;;;;;7.13;3.38;;;20.90;64.20;;;;;;5045240;28;20090;-46
2022/05/20 12:47:34;;;;;;;6.53;3.47;;;20.50;63.10;;;;;;5049211;28;20100;-48
2022/05/20 12:50:08;;;;;;;7.18;3.50;;;20.40;66.80;;;;;;5040465;28;20096;-47
2022/05/20 12:52:45;;;;;;;9.75;3.88;;;20.30;67.00;;;;;;5047188;28;20071;-48
2022/05/20 12:55:15;;;;;;;4.65;3.05;;;20.10;66.70;;;;;;5021790;28;20045;-46
2022/05/20 12:58:14;;;;;;;7.68;4.15;;;19.90;67.90;;;;;;5029585;28;20116;-45
2022/05/20 13:00:50;;;;;;;10.20;3.55;;;19.80;66.40;;;;;;5032549;28;20128;-45
2022/05/20 13:03:33;;;;;;;5.90;3.17;;;19.50;68.10;;;;;;5036891;28;20044;-45
2022/05/20 13:06:03;;;;;;;8.10;3.53;;;19.60;69.00;;;;;;5028814;28;20446;-46
2022/05/20 13:08:31;;;;;;;;;;;19.70;69.50;;;;;;5047569;28;20061;-48
2022/05/20 13:11:07;;;;;;;7.13;3.22;;;19.50;69.10;;;;;;5047629;28;20238;-46
2022/05/20 13:13:33;;;;;;;9.20;4.93;;;19.60;69.70;;;;;;5038634;28;20370;-46
2022/05/20 13:16:01;;;;;;;8.77;4.30;;;19.40;68.10;;;;;;5030800;28;20029;-45
2022/05/20 13:18:29;;;;;;;7.65;3.63;;;19.10;69.40;;;;;;5030939;28;20491;-46
2022/05/20 13:20:57;;;;;;;12.88;4.18;;;18.90;69.60;;;;;;5046068;28;20051;-47
2022/05/20 13:23:28;;;;;;;6.93;4.63;;;19.00;69.50;;;;;;5046018;28;20120;-46
2022/05/20 13:25:54;;;;;;;7.45;3.42;;;19.20;70.50;;;;;;5048054;28;20033;-47
2022/05/20 13:28:34;;;;;;;7.13;3.95;;;19.30;69.80;;;;;;5033245;28;20021;-46
2022/05/20 13:31:12;;;;;;;7.93;3.53;;;19.50;67.20;;;;;;5027859;28;20178;-47
2022/05/20 13:33:42;;;;;;;8.60;4.10;;;19.60;65.30;;;;;;5045532;28;20046;-46
2022/05/20 13:36:11;;;;;;;;;;;19.70;63.30;;;;;;5048633;28;20041;-46
2022/05/20 13:38:46;;;;;;;9.85;3.05;;;19.70;64.80;;;;;;5041648;28;20024;-46
2022/05/20 13:41:14;;;;;;;6.10;2.83;;;19.80;66.70;;;;;;5030251;28;20032;-48
2022/05/20 13:43:41;;;;;;;5.78;2.75;;;20.00;66.40;;;;;;5031568;28;20063;-46
2022/05/20 13:49:18;;;;;;;10.32;4.10;;;20.40;64.50;;;;;;5034446;28;20421;-46
2022/05/20 13:52:13;;;;;;;7.32;3.72;;;20.10;63.30;;;;;;5019164;28;20107;-46
2022/05/20 13:54:50;;;;;;;6.70;3.67;;;19.60;62.70;;;;;;5037753;28;20028;-50
2022/05/20 13:57:28;;;;;;;9.07;4.88;;;19.40;64.80;;;;;;5035849;28;20033;-47